createdAt,value
2023-03-05T00:01:33.615Z,101937.56
2023-03-05T00:04:04.451Z,101930.06
2023-03-05T00:06:33.224Z,101935.72
2023-03-05T00:09:00.798Z,101936.63
2023-03-05T00:11:30.432Z,101886.25
2023-03-05T00:13:58.464Z,101929.44
2023-03-05T00:16:28.892Z,101922.31
2023-03-05T00:18:57.926Z,101904.72
2023-03-05T00:21:29.160Z,101900.03
2023-03-05T00:23:58.229Z,101916.56
2023-03-05T00:26:27.646Z,101923.28
2023-03-05T00:28:56.340Z,101916.66
2023-03-05T00:31:30.652Z,101929.22
2023-03-05T00:34:01.773Z,101925.25
2023-03-05T00:36:30.041Z,101906.31
2023-03-05T00:38:57.799Z,101919.31
2023-03-05T00:41:25.366Z,101908.56
2023-03-05T00:43:53.546Z,101898.50
2023-03-05T00:46:20.999Z,101902.84
2023-03-05T00:48:48.429Z,101906.41
2023-03-05T00:51:16.092Z,101895.91
2023-03-05T00:53:43.314Z,101892.22
2023-03-05T00:56:11.273Z,101886.38
2023-03-05T00:58:39.508Z,101895.44
2023-03-05T01:01:07.100Z,101890.03
2023-03-05T01:03:36.113Z,101852.56
2023-03-05T01:06:12.247Z,101876.38
2023-03-05T01:08:39.978Z,101887.16
2023-03-05T01:11:07.839Z,101881.44
2023-03-05T01:13:36.314Z,101882.66
2023-03-05T01:16:04.767Z,101882.53
2023-03-05T01:18:32.629Z,101866.53
2023-03-05T01:20:59.972Z,101828.03
2023-03-05T01:23:27.694Z,101862.81
2023-03-05T01:25:59.230Z,101866.78
2023-03-05T01:28:27.392Z,101851.53
2023-03-05T01:30:54.607Z,101846.19
2023-03-05T01:33:21.954Z,101840.16
2023-03-05T01:35:50.417Z,101842.47
2023-03-05T01:38:18.571Z,101838.56
2023-03-05T01:40:46.480Z,101833.63
2023-03-05T01:43:13.633Z,101856.59
2023-03-05T01:46:16.976Z,101854.34
2023-03-05T01:48:48.048Z,101833.75
2023-03-05T01:51:16.956Z,101828.56
2023-03-05T01:53:44.612Z,101837.78
2023-03-05T01:56:11.976Z,101826.34
2023-03-05T01:58:40.088Z,101833.50
2023-03-05T02:01:07.488Z,101810.91
2023-03-05T02:03:35.805Z,101818.06
2023-03-05T02:06:04.252Z,101802.06
2023-03-05T02:08:32.135Z,101801.41
2023-03-05T02:11:00.876Z,101797.56
2023-03-05T02:13:34.468Z,101799.38
2023-03-05T02:16:02.461Z,101815.25
2023-03-05T02:18:29.949Z,101787.09
2023-03-05T02:20:57.145Z,101797.94
2023-03-05T02:23:30.332Z,101785.53
2023-03-05T02:25:57.780Z,101711.09
2023-03-05T02:28:43.427Z,101787.78
2023-03-05T02:31:16.146Z,101790.88
2023-03-05T02:33:44.061Z,101739.22
2023-03-05T02:36:12.423Z,101771.69
2023-03-05T02:38:41.616Z,101758.13
2023-03-05T02:41:09.649Z,101744.47
2023-03-05T02:43:37.814Z,101761.88
2023-03-05T02:46:06.226Z,101760.34
2023-03-05T02:48:33.474Z,101756.88
2023-03-05T02:51:02.962Z,101765.59
2023-03-05T02:53:30.230Z,101762.66
2023-03-05T02:55:58.987Z,101763.81
2023-03-05T02:58:27.415Z,101744.63
2023-03-05T03:00:54.650Z,101768.34
2023-03-05T03:03:22.746Z,101754.13
2023-03-05T03:05:49.895Z,101756.94
2023-03-05T03:08:17.536Z,101758.22
2023-03-05T03:10:45.109Z,101751.63
2023-03-05T03:13:12.316Z,101746.50
2023-03-05T03:15:40.784Z,101749.94
2023-03-05T03:18:08.083Z,101759.69
2023-03-05T03:20:39.328Z,101742.69
2023-03-05T03:23:07.130Z,101755.13
2023-03-05T03:25:34.656Z,101718.69
2023-03-05T03:28:01.929Z,101760.66
2023-03-05T03:30:29.163Z,101759.19
2023-03-05T03:32:56.554Z,101753.88
2023-03-05T03:35:23.819Z,101762.53
2023-03-05T03:37:51.147Z,101759.56
2023-03-05T03:40:18.692Z,101746.91
2023-03-05T03:42:45.875Z,101751.28
2023-03-05T03:45:13.807Z,101735.06
2023-03-05T03:47:41.158Z,101742.31
2023-03-05T03:50:08.950Z,101740.97
2023-03-05T03:52:36.218Z,101726.41
2023-03-05T03:55:04.011Z,101723.47
2023-03-05T03:57:33.730Z,101726.28
2023-03-05T04:00:01.266Z,101689.97
2023-03-05T04:02:28.672Z,101714.03
2023-03-05T04:04:56.057Z,101733.13
2023-03-05T04:07:26.297Z,101715.22
2023-03-05T04:09:53.619Z,101701.56
2023-03-05T04:12:20.859Z,101721.13
2023-03-05T04:14:49.673Z,101732.50
2023-03-05T04:17:17.261Z,101710.16
2023-03-05T04:19:45.578Z,101728.69
2023-03-05T04:22:15.365Z,101723.97
2023-03-05T04:24:44.607Z,101728.69
2023-03-05T04:27:12.370Z,101709.78
2023-03-05T04:29:39.885Z,101717.28
2023-03-05T04:32:07.769Z,101701.97
2023-03-05T04:34:37.030Z,101702.09
2023-03-05T04:37:04.715Z,101692.81
2023-03-05T04:39:32.145Z,101676.94
2023-03-05T04:41:59.376Z,101680.53
2023-03-05T04:44:26.771Z,101706.50
2023-03-05T04:46:53.954Z,101707.38
2023-03-05T04:49:22.616Z,101721.69
2023-03-05T04:51:49.956Z,101703.03
2023-03-05T04:54:17.122Z,101711.38
2023-03-05T04:56:44.533Z,101706.38
2023-03-05T04:59:11.786Z,101719.31
2023-03-05T05:01:39.180Z,101705.09
2023-03-05T05:04:06.750Z,101704.19
2023-03-05T05:06:33.918Z,101692.69
2023-03-05T05:09:02.089Z,101713.44
2023-03-05T05:11:29.789Z,101701.03
2023-03-05T05:13:56.979Z,101704.63
2023-03-05T05:16:24.364Z,101691.53
2023-03-05T05:18:51.876Z,101688.63
2023-03-05T05:21:20.668Z,101682.75
2023-03-05T05:23:48.839Z,101687.59
2023-03-05T05:26:16.489Z,101707.69
2023-03-05T05:28:45.311Z,101695.28
2023-03-05T05:31:15.060Z,101686.88
2023-03-05T05:33:43.325Z,101690.34
2023-03-05T05:36:14.443Z,101700.94
2023-03-05T05:38:42.105Z,101673.19
2023-03-05T05:41:14.917Z,101700.41
2023-03-05T05:43:42.410Z,101687.22
2023-03-05T05:46:14.419Z,101690.28
2023-03-05T05:48:42.029Z,101677.91
2023-03-05T05:51:12.392Z,101643.63
2023-03-05T05:53:45.146Z,101688.38
2023-03-05T05:56:14.201Z,101663.06
2023-03-05T05:58:42.609Z,101677.53
2023-03-05T06:01:26.709Z,101657.84
2023-03-05T06:03:54.185Z,101680.06
2023-03-05T06:06:24.431Z,101679.75
2023-03-05T06:08:52.548Z,101631.78
2023-03-05T06:11:21.194Z,101661.09
2023-03-05T06:13:49.875Z,101655.06
2023-03-05T06:16:22.549Z,101675.16
2023-03-05T06:18:51.272Z,101683.84
2023-03-05T06:21:42.850Z,101675.41
2023-03-05T06:24:16.793Z,101665.44
2023-03-05T06:27:01.919Z,101652.75
2023-03-05T06:29:34.429Z,101657.19
2023-03-05T06:32:06.664Z,101677.28
2023-03-05T06:37:44.673Z,101658.47
2023-03-05T06:40:26.942Z,101665.53
2023-03-05T06:42:56.586Z,101685.91
2023-03-05T06:45:29.732Z,101678.00
2023-03-05T06:48:04.146Z,101665.88
2023-03-05T06:50:41.346Z,101674.06
2023-03-05T06:53:21.437Z,101684.19
2023-03-05T06:56:04.221Z,101678.41
2023-03-05T06:58:33.850Z,101660.25
2023-03-05T07:01:06.094Z,101678.41
2023-03-05T07:03:39.448Z,101656.44
2023-03-05T07:06:15.271Z,101639.69
2023-03-05T07:09:04.592Z,101671.22
2023-03-05T07:11:34.103Z,101632.22
2023-03-05T07:14:03.413Z,101674.50
2023-03-05T07:16:41.286Z,101689.69
2023-03-05T07:19:11.849Z,101695.97
2023-03-05T07:21:46.415Z,101691.38
2023-03-05T07:24:30.900Z,101648.44
2023-03-05T07:27:02.430Z,101676.53
2023-03-05T07:29:41.677Z,101664.13
2023-03-05T07:32:17.429Z,101686.88
2023-03-05T07:34:47.660Z,101688.66
2023-03-05T07:37:15.112Z,101669.44
2023-03-05T07:39:42.472Z,101662.53
2023-03-05T07:42:11.753Z,101678.00
2023-03-05T07:44:52.042Z,101671.31
2023-03-05T07:47:19.722Z,101666.56
2023-03-05T07:49:47.627Z,101668.81
2023-03-05T07:52:15.821Z,101658.81
2023-03-05T07:54:46.112Z,101681.03
2023-03-05T07:57:15.716Z,101680.72
2023-03-05T07:59:51.807Z,101677.44
2023-03-05T08:02:26.944Z,101669.44
2023-03-05T08:05:01.718Z,101590.38
2023-03-05T08:07:56.553Z,101686.22
2023-03-05T08:10:26.318Z,101631.69
2023-03-05T08:13:05.417Z,101679.22
2023-03-05T08:15:38.576Z,101648.69
2023-03-05T08:18:18.018Z,101686.06
2023-03-05T08:20:56.896Z,101646.38
2023-03-05T08:23:34.875Z,101686.91
2023-03-05T08:26:27.784Z,101688.16
2023-03-05T08:29:09.782Z,101629.69
2023-03-05T08:32:07.700Z,101675.25
2023-03-05T08:34:59.947Z,101689.81
2023-03-05T08:37:36.288Z,101684.03
2023-03-05T08:40:07.663Z,101671.94
2023-03-05T08:42:47.185Z,101679.50
2023-03-05T08:45:29.650Z,101679.50
2023-03-05T08:48:07.943Z,101629.13
2023-03-05T08:50:41.662Z,101676.00
2023-03-05T08:53:09.188Z,101669.09
2023-03-05T08:55:46.869Z,101648.03
2023-03-05T08:58:35.038Z,101623.69
2023-03-05T09:04:07.877Z,101642.00
2023-03-05T09:06:42.288Z,101656.28
2023-03-05T09:09:10.709Z,101627.03
2023-03-05T09:11:38.503Z,101638.47
2023-03-05T09:14:07.285Z,101619.19
2023-03-05T09:16:36.056Z,101570.63
2023-03-05T09:19:03.700Z,101613.22
2023-03-05T09:22:04.492Z,101606.09
2023-03-05T09:25:13.734Z,101565.84
2023-03-05T09:27:58.578Z,101599.50
2023-03-05T09:30:29.101Z,101568.50
2023-03-05T09:33:20.871Z,101615.25
2023-03-05T09:35:52.265Z,101605.41
2023-03-05T09:38:22.674Z,101610.56
2023-03-05T09:41:18.392Z,101608.63
2023-03-05T09:44:05.614Z,101607.47
2023-03-05T09:47:14.944Z,101601.97
2023-03-05T09:49:50.168Z,101581.63
2023-03-05T09:52:29.385Z,101587.69
2023-03-05T09:55:10.157Z,101597.88
2023-03-05T10:08:12.688Z,101566.41
2023-03-05T10:11:19.830Z,101546.28
2023-03-05T10:13:57.206Z,101547.44
2023-03-05T10:17:12.385Z,101548.09
2023-03-05T10:20:11.250Z,101550.09
2023-03-05T10:22:59.464Z,101545.06
2023-03-05T10:25:51.176Z,101549.63
2023-03-05T10:28:57.043Z,101523.53
2023-03-05T10:31:58.674Z,101538.75
2023-03-05T10:34:56.317Z,101508.75
2023-03-05T10:37:52.720Z,101533.56
2023-03-05T10:40:42.414Z,101478.53
2023-03-05T10:43:59.941Z,101467.13
2023-03-05T10:46:48.320Z,101440.50
2023-03-05T10:49:34.162Z,101489.31
2023-03-05T10:52:32.001Z,101509.09
2023-03-05T10:59:08.567Z,101496.38
2023-03-05T11:01:41.305Z,101491.78
2023-03-05T11:05:20.200Z,101473.13
2023-03-05T11:07:49.027Z,101482.34
2023-03-05T11:10:25.544Z,101476.47
2023-03-05T11:12:54.467Z,101465.41
2023-03-05T11:15:35.065Z,101439.91
2023-03-05T11:18:09.381Z,101446.81
2023-03-05T11:20:41.862Z,101482.91
2023-03-05T11:23:25.745Z,101463.97
2023-03-05T11:26:07.993Z,101455.59
2023-03-05T11:28:43.038Z,101468.38
2023-03-05T11:34:42.317Z,101429.16
2023-03-05T11:37:41.689Z,101449.50
2023-03-05T11:41:05.096Z,101450.81
2023-03-05T11:43:48.941Z,101451.00
2023-03-05T11:46:45.197Z,101441.09
2023-03-05T11:50:11.739Z,101447.63
2023-03-05T11:52:53.549Z,101436.16
2023-03-05T11:55:29.479Z,101422.47
2023-03-05T11:58:25.960Z,101440.53
2023-03-05T12:00:59.417Z,101437.69
2023-03-05T12:03:42.954Z,101393.78
2023-03-05T12:06:20.101Z,101422.31
2023-03-05T12:08:56.779Z,101422.81
2023-03-05T12:11:31.962Z,101385.09
2023-03-05T12:14:15.284Z,101411.75
2023-03-05T12:16:54.773Z,101405.53
2023-03-05T12:19:36.444Z,101388.34
2023-03-05T12:22:26.665Z,101393.09
2023-03-05T12:25:23.643Z,101387.63
2023-03-05T12:27:51.991Z,101359.88
2023-03-05T12:30:34.918Z,101385.19
2023-03-05T12:33:10.950Z,101373.75
2023-03-05T12:35:41.172Z,101369.00
2023-03-05T12:38:35.204Z,101361.31
2023-03-05T12:41:51.142Z,101357.31
2023-03-05T12:44:24.601Z,101360.28
2023-03-05T12:47:52.124Z,101357.38
2023-03-05T12:50:56.170Z,101289.75
2023-03-05T12:53:34.383Z,101321.28
2023-03-05T12:56:26.254Z,101325.91
2023-03-05T12:59:08.617Z,101332.00
2023-03-05T13:02:28.631Z,101304.59
2023-03-05T13:05:21.022Z,101311.13
2023-03-05T13:10:51.921Z,101308.41
2023-03-05T13:13:21.299Z,101316.72
2023-03-05T13:15:52.519Z,101300.47
2023-03-05T13:18:29.615Z,101306.19
2023-03-05T13:21:09.490Z,101299.88
2023-03-05T13:23:58.210Z,101294.09
2023-03-05T13:26:52.282Z,101292.75
2023-03-05T13:29:24.063Z,101295.91
2023-03-05T13:31:58.094Z,101301.41
2023-03-05T13:34:40.839Z,101291.16
2023-03-05T13:37:26.456Z,101290.66
2023-03-05T13:40:24.186Z,101281.84
2023-03-05T13:42:57.874Z,101270.88
2023-03-05T13:45:29.633Z,101278.34
2023-03-05T13:48:12.933Z,101238.06
2023-03-05T13:50:42.281Z,101263.91
2023-03-05T13:53:39.356Z,101261.50
2023-03-05T13:56:29.376Z,101240.38
2023-03-05T13:59:02.870Z,101197.59
2023-03-05T14:01:32.735Z,101251.69
2023-03-05T14:04:28.925Z,101234.72
2023-03-05T14:07:46.434Z,101224.75
2023-03-05T14:10:36.774Z,101224.75
2023-03-05T14:13:25.223Z,101218.38
2023-03-05T14:16:37.313Z,101217.81
2023-03-05T14:19:08.790Z,101193.03
2023-03-05T14:25:40.084Z,101219.09
2023-03-05T14:28:53.385Z,101219.22
2023-03-05T14:32:14.814Z,101208.72
2023-03-05T14:34:58.839Z,101210.25
2023-03-05T14:37:37.015Z,101182.91
2023-03-05T14:40:14.678Z,101207.47
2023-03-05T14:42:58.555Z,101199.84
2023-03-05T14:45:35.012Z,101184.03
2023-03-05T14:48:07.735Z,101197.59
2023-03-05T14:51:02.448Z,101197.41
2023-03-05T14:53:41.427Z,101176.13
2023-03-05T14:56:22.498Z,101163.94
2023-03-05T14:58:54.177Z,101156.50
2023-03-05T15:01:38.272Z,101163.41
2023-03-05T15:04:13.058Z,101161.69
2023-03-05T15:06:48.562Z,101154.66
2023-03-05T15:09:22.123Z,101124.31
2023-03-05T15:12:05.094Z,101148.69
2023-03-05T15:14:57.552Z,101141.28
2023-03-05T15:18:13.904Z,101141.44
2023-03-05T15:20:43.998Z,101095.38
2023-03-05T15:23:18.710Z,101140.47
2023-03-05T15:25:53.448Z,101107.56
2023-03-05T15:28:41.240Z,101140.88
2023-03-05T15:31:13.649Z,101129.00
2023-03-05T15:33:43.057Z,101129.03
2023-03-05T15:36:11.242Z,101120.06
2023-03-05T15:38:50.653Z,101111.97
2023-03-05T15:41:30.051Z,101107.63
2023-03-05T15:44:41.821Z,101126.25
2023-03-05T15:47:14.221Z,101106.50
2023-03-05T15:50:25.744Z,101122.00
2023-03-05T15:52:53.592Z,101119.69
2023-03-05T15:55:37.057Z,101099.25
2023-03-05T15:58:29.307Z,101122.94
2023-03-05T16:01:21.714Z,101064.78
2023-03-05T16:04:05.113Z,101091.28
2023-03-05T16:06:45.960Z,101098.25
2023-03-05T16:09:27.853Z,101093.03
2023-03-05T16:11:57.991Z,101104.59
2023-03-05T16:14:31.734Z,101100.09
2023-03-05T16:17:06.052Z,101092.25
2023-03-05T16:23:45.735Z,101090.44
2023-03-05T16:26:48.937Z,101092.88
2023-03-05T16:29:42.044Z,101063.09
2023-03-05T16:32:21.924Z,101084.06
2023-03-05T16:35:04.619Z,101082.16
2023-03-05T16:38:07.025Z,101072.31
2023-03-05T16:41:06.132Z,101073.06
2023-03-05T16:43:38.666Z,101085.16
2023-03-05T16:46:33.947Z,101075.44
2023-03-05T16:49:11.521Z,101065.59
2023-03-05T16:51:50.399Z,101071.09
2023-03-05T16:54:22.737Z,101082.88
2023-03-05T16:56:54.514Z,101097.72
2023-03-05T16:59:55.177Z,101084.13
2023-03-05T17:02:33.957Z,101073.84
2023-03-05T17:05:08.651Z,101045.25
2023-03-05T17:07:49.264Z,101080.06
2023-03-05T17:10:18.897Z,101068.53
2023-03-05T17:12:48.127Z,101078.31
2023-03-05T17:15:16.550Z,101043.75
2023-03-05T17:17:58.109Z,101070.63
2023-03-05T17:20:41.210Z,101061.94
2023-03-05T17:23:51.499Z,101074.69
2023-03-05T17:26:39.008Z,101037.16
2023-03-05T17:29:08.403Z,101067.91
2023-03-05T17:31:36.396Z,101062.28
2023-03-05T17:34:06.339Z,101018.09
2023-03-05T17:36:36.031Z,101036.41
2023-03-05T17:39:14.756Z,101054.75
2023-03-05T17:41:53.240Z,101037.72
2023-03-05T17:44:21.877Z,101058.00
2023-03-05T17:46:49.994Z,101053.22
2023-03-05T17:49:47.205Z,101060.78
2023-03-05T17:52:54.761Z,101059.19
2023-03-05T17:55:33.131Z,101060.53
2023-03-05T17:58:02.227Z,101056.00
2023-03-05T18:00:40.470Z,101039.53
2023-03-05T18:03:14.021Z,101049.25
2023-03-05T18:06:11.412Z,101039.03
2023-03-05T18:08:47.787Z,101055.25
2023-03-05T18:11:22.261Z,101063.59
2023-03-05T18:13:51.861Z,101047.28
2023-03-05T18:16:24.360Z,101050.16
2023-03-05T18:18:53.042Z,101054.78
2023-03-05T18:21:23.216Z,101070.84
2023-03-05T18:23:56.418Z,101071.56
2023-03-05T18:31:56.735Z,101069.06
2023-03-05T18:34:26.296Z,101065.72
2023-03-05T18:36:54.358Z,101040.38
2023-03-05T18:39:33.933Z,101039.91
2023-03-05T18:42:14.051Z,101076.66
2023-03-05T18:44:50.100Z,101079.53
2023-03-05T18:47:17.577Z,101073.94
2023-03-05T18:50:00.148Z,101062.28
2023-03-05T18:52:31.317Z,101064.38
2023-03-05T18:55:21.732Z,101043.44
2023-03-05T18:57:51.335Z,101079.50
2023-03-05T19:00:35.077Z,101078.25
2023-03-05T19:03:09.637Z,101066.38
2023-03-05T19:06:00.214Z,101072.00
2023-03-05T19:08:31.685Z,101059.97
2023-03-05T19:11:00.420Z,101065.81
2023-03-05T19:13:46.007Z,101070.03
2023-03-05T19:16:19.061Z,101058.13
2023-03-05T19:19:15.831Z,101062.94
2023-03-05T19:21:46.408Z,101034.78
2023-03-05T19:24:26.314Z,101065.56
2023-03-05T19:27:02.548Z,101045.47
2023-03-05T19:29:33.471Z,101069.72
2023-03-05T19:32:06.057Z,101016.00
2023-03-05T19:34:33.671Z,101070.00
2023-03-05T19:37:02.294Z,101050.47
2023-03-05T19:39:29.896Z,101056.78
2023-03-05T19:41:57.206Z,101057.44
2023-03-05T19:44:25.290Z,101049.22
2023-03-05T19:46:53.122Z,101052.53
2023-03-05T19:49:26.011Z,101051.84
2023-03-05T19:51:54.652Z,101048.81
2023-03-05T19:54:23.226Z,101034.31
2023-03-05T19:56:54.902Z,101034.47
2023-03-05T19:59:23.486Z,100974.09
2023-03-05T20:01:50.868Z,101039.91
2023-03-05T20:04:23.878Z,101005.63
2023-03-05T20:07:17.961Z,101046.34
2023-03-05T20:09:53.447Z,101044.78
2023-03-05T20:12:23.833Z,101036.38
2023-03-05T20:14:51.224Z,101030.56
2023-03-05T20:17:20.319Z,101032.53
2023-03-05T20:19:49.427Z,101051.03
2023-03-05T20:22:18.682Z,101036.47
2023-03-05T20:24:48.289Z,101046.28
2023-03-05T20:27:16.314Z,101051.44
2023-03-05T20:29:43.719Z,101047.47
2023-03-05T20:32:11.227Z,101043.84
2023-03-05T20:34:38.775Z,101028.84
2023-03-05T20:37:06.520Z,101047.72
2023-03-05T20:39:34.303Z,101046.59
2023-03-05T20:42:01.542Z,101023.50
2023-03-05T20:44:29.000Z,101034.19
2023-03-05T20:47:10.250Z,101040.94
2023-03-05T20:49:37.502Z,100990.41
2023-03-05T20:52:04.857Z,101038.38
2023-03-05T20:54:32.055Z,100998.91
2023-03-05T20:56:59.488Z,101031.31
2023-03-05T20:59:27.345Z,101000.78
2023-03-05T21:01:54.894Z,100987.72
2023-03-05T21:04:22.239Z,101023.88
2023-03-05T21:06:54.128Z,101030.72
2023-03-05T21:09:21.475Z,101011.88
2023-03-05T21:11:48.826Z,101024.75
2023-03-05T21:14:15.989Z,101027.94
2023-03-05T21:16:44.311Z,101033.13
2023-03-05T21:19:11.621Z,101017.84
2023-03-05T21:21:44.944Z,101032.75
2023-03-05T21:24:12.869Z,101032.56
2023-03-05T21:26:40.042Z,101026.19
2023-03-05T21:29:11.358Z,101024.38
2023-03-05T21:31:40.224Z,101019.59
2023-03-05T21:34:08.960Z,101002.56
2023-03-05T21:36:36.258Z,101020.06
2023-03-05T21:39:03.596Z,101015.22
2023-03-05T21:41:33.315Z,101016.84
2023-03-05T21:44:04.864Z,101026.50
2023-03-05T21:46:32.343Z,101008.38
2023-03-05T21:48:59.898Z,101016.09
2023-03-05T21:51:37.237Z,101013.94
2023-03-05T21:54:04.973Z,100982.97
2023-03-05T21:56:33.354Z,101010.72
2023-03-05T21:59:00.836Z,100999.59
2023-03-05T22:01:33.072Z,101011.66
2023-03-05T22:04:00.996Z,101017.31
2023-03-05T22:06:28.317Z,101011.00
2023-03-05T22:08:55.658Z,101012.63
2023-03-05T22:11:23.122Z,101005.69
2023-03-05T22:13:50.476Z,101005.97
2023-03-05T22:16:23.474Z,101005.97
2023-03-05T22:18:51.738Z,101004.72
2023-03-05T22:21:22.436Z,101007.81
2023-03-05T22:23:51.613Z,101012.34
2023-03-05T22:26:19.443Z,100997.16
2023-03-05T22:28:46.829Z,100964.00
2023-03-05T22:31:21.562Z,101000.91
2023-03-05T22:33:49.312Z,100996.28
2023-03-05T22:36:16.538Z,101001.19
2023-03-05T22:38:44.008Z,101005.06
2023-03-05T22:41:15.403Z,101007.16
2023-03-05T22:43:47.176Z,101009.84
2023-03-05T22:46:18.410Z,101008.94
2023-03-05T22:48:47.491Z,100999.16
2023-03-05T22:51:16.160Z,101003.97
2023-03-05T22:53:44.247Z,100999.66
2023-03-05T22:56:14.321Z,100997.59
2023-03-05T22:58:42.224Z,100991.34
2023-03-05T23:01:21.824Z,100971.63
2023-03-05T23:03:55.229Z,100996.22
2023-03-05T23:06:23.744Z,100996.22
2023-03-05T23:08:51.053Z,100929.28
2023-03-05T23:11:18.241Z,101004.81
2023-03-05T23:13:45.481Z,100967.59
2023-03-05T23:16:12.685Z,100965.50
2023-03-05T23:18:39.986Z,100998.00
2023-03-05T23:21:07.239Z,100994.75
2023-03-05T23:23:35.734Z,100994.75
2023-03-05T23:26:03.197Z,100985.25
2023-03-05T23:28:30.688Z,100973.63
2023-03-05T23:30:58.642Z,100951.97
2023-03-05T23:33:25.902Z,100988.19
2023-03-05T23:35:59.174Z,100965.72
2023-03-05T23:38:28.537Z,100982.38
2023-03-05T23:41:00.709Z,100932.34
2023-03-05T23:43:28.397Z,100958.78
2023-03-05T23:45:56.463Z,100945.56
2023-03-05T23:48:25.830Z,100987.13
2023-03-05T23:50:53.620Z,100988.81
2023-03-05T23:53:27.435Z,100985.13
2023-03-05T23:55:56.140Z,100969.63
2023-03-05T23:58:23.857Z,100943.09
